• Join FlightAware (Why Join?)
  • Login
  • US Flag 
12:20AM EDT


 

Airport Tracker/Info


-or-


 

Live Flight TrackerFlight Track Log ✈ RPA3446 ✈ 28-Jun-2014 ✈ KDTW - KCLT

Flight Track Log - Related Links

Times and Time Zones

All times are in EDT time to prevent confusion due to time zone crossing. See the RPA3446 flight status page for this flight to view local times or setup timezone preferences in your user account.

Time Position Orientation Groundspeed Altitude Reporting Facility
EDT Latitude Longitude Course Direction KTS MPH feet Rate Location/Type
01:48PM 42.2039 -83.3697 180° South 149 171 1,300  Level Cleveland Center
01:49PM 42.1281 -83.3983 196° South 229 264 4,100 2,220 Climbing Cleveland Center
01:51PM 42.0519 -83.4114 187° South 252 290 7,200 2,760 Climbing Cleveland Center
01:52PM 41.8116 -83.2016 180° South  Level Estimated
01:52PM 41.9753 -83.3978 172° South 272 313 10,300  Level Cleveland Center
01:53PM 41.7114 -83.1639 180° South  Level Estimated
01:53PM 41.8894 -83.3817 172° South 312 359 12,200  Level Cleveland Center
01:54PM 41.7917 -83.3633 172° South 327 376 14,900 2,400 Climbing Cleveland Center
01:55PM 41.6986 -83.3472 173° South 332 382 17,200 1,980 Climbing Cleveland Center
01:56PM 41.6025 -83.3364 175° South 343 395 19,000 1,800 Climbing Cleveland Center
01:57PM 41.5031 -83.3431 183° South 354 407 21,000 1,860 Climbing Cleveland Center
01:58PM 41.4047 -83.3764 194° South 361 415 22,900 1,680 Climbing Cleveland Center
01:59PM 41.3064 -83.4125 195° South 363 418 24,500 1,380 Climbing Cleveland Center
02:00PM 41.2044 -83.4478 195° South 373 429 25,800 1,260 Climbing Cleveland Center
02:01PM 41.0847 -83.4897 195° South 384 442 27,200 1,200 Climbing Cleveland Center
02:03PM 40.8997 -83.5544 195° South 398 458 29,400 1,140 Climbing Indianapolis Center
02:04PM 40.7683 -83.5997 195° South 405 466 30,500 840 Climbing Indianapolis Center
02:05PM 40.6331 -83.6469 195° South 417 480 31,400 720 Climbing Cleveland Center
02:06PM 40.5419 -83.6781 195° South 419 482 32,000 840 Climbing Indianapolis Center
02:07PM 40.4239 -83.6664 176° South 434 499 33,000 480 Climbing Indianapolis Center
02:08PM 40.3089 -83.6189 163° South 431 496 33,000  Level Indianapolis Center
02:09PM 40.1936 -83.5733 163° South 431 496 33,000  Level Indianapolis Center
02:10PM 40.0789 -83.5264 163° South 432 497 33,000  Level Indianapolis Center
02:11PM 39.9642 -83.4800 163° South 431 496 33,000  Level Indianapolis Center
02:12PM 39.8242 -83.4231 163° South 432 497 33,000  Level Indianapolis Center
02:13PM 39.7217 -83.3828 163° South 433 498 33,000  Level Indianapolis Center
02:14PM 39.6072 -83.3378 163° South 433 498 33,000  Level Indianapolis Center
02:15PM 39.4711 -83.2831 163° South 430 495 33,000  Level Indianapolis Center
02:16PM 39.3561 -83.2378 163° South 430 495 33,000  Level Indianapolis Center
02:17PM 39.2481 -83.1731 155° Southeast 431 496 33,000  Level Indianapolis Center
02:18PM 39.1494 -83.1044 152° Southeast 434 499 33,000  Level Indianapolis Center
02:19PM 39.0439 -83.0281 151° Southeast 434 499 33,000  Level Indianapolis Center
02:20PM 38.9153 -82.9356 151° Southeast 439 505 33,000  Level Indianapolis Center
02:21PM 38.8072 -82.8578 151° Southeast 440 506 33,000  Level Indianapolis Center
02:22PM 38.6972 -82.7783 151° Southeast 449 517 33,000  Level Indianapolis Center
02:23PM 38.5967 -82.7061 151° Southeast 449 517 33,000  Level Indianapolis Center
02:24PM 38.4689 -82.6125 150° Southeast 450 518 33,000  Level Indianapolis Center
02:25PM 38.3586 -82.5317 150° Southeast 451 519 33,000  Level Indianapolis Center
02:26PM 38.2608 -82.4594 150° Southeast 452 520 33,000  Level Indianapolis Center
02:27PM 38.1508 -82.3803 150° Southeast 453 521 33,000  Level Indianapolis Center
02:28PM 38.0289 -82.2906 150° Southeast 453 521 33,000  Level Indianapolis Center
02:29PM 37.9142 -82.2256 156° South 453 521 33,000 -360 Level Indianapolis Center
02:30PM 37.7956 -82.1703 160° South 452 520 32,300 -840 Descending Indianapolis Center
02:31PM 37.6769 -82.1172 161° South 452 520 31,300 -1,020 Descending Indianapolis Center
02:32PM 37.5581 -82.0661 161° South 452 520 30,300 -1,020 Descending Indianapolis Center
02:34PM 37.4386 -82.0381 169° South 447 514 29,300 -660 Descending Indianapolis Center
02:35PM 37.3017 -82.0511 184° South 427 491 29,000 -180 Descending Indianapolis Center
02:36PM 37.1828 -82.0622 184° South 425 489 29,000  Level Indianapolis Center
02:37PM 37.0611 -82.0736 184° South 429 494 29,000 -540 Level Indianapolis Center
02:38PM 36.9375 -82.0836 184° South 437 503 27,900 -1,320 Descending Indianapolis Center
02:39PM 36.8178 -82.0956 185° South 436 502 26,400 -1,440 Descending Indianapolis Center
02:40PM 36.7069 -82.1375 197° South 419 482 25,000 -720 Descending Indianapolis Center
02:41PM 36.5992 -82.1781 197° South 409 471 25,000 -540 Level Indianapolis Center
02:42PM 36.4922 -82.2178 197° South 404 465 24,000 -540 Descending Indianapolis Center
02:43PM 36.3847 -82.1803 164° South 406 467 24,000  Level Indianapolis Center
02:44PM 36.2878 -82.1042 148° Southeast 409 471 24,000 -120 Level Indianapolis Center
02:45PM 36.1922 -82.0275 147° Southeast 409 471 23,800 -1,320 Descending Indianapolis Center
02:46PM 36.0789 -81.9419 149° Southeast 409 471 21,300 -2,100 Descending Indianapolis Center
02:47PM 35.9639 -81.8581 149° Southeast 396 456 18,900 -1,860 Descending Atlanta Center
02:48PM 35.8772 -81.7939 149° Southeast 386 444 17,000 -2,220 Descending Atlanta Center
02:49PM 35.8286 -81.7592 150° Southeast 365 420 15,800 -1,920 Descending Atlanta Center
02:49PM 35.7925 -81.7269 144° Southeast 374 430 15,100 -1,680 Descending Atlanta Center
02:50PM 35.7119 -81.6653 148° Southeast 361 415 13,200 -2,040 Descending Atlanta Center
02:51PM 35.6231 -81.5989 149° Southeast 350 403 11,100 -1,920 Descending Atlanta Center
02:51PM 35.6125 -81.5917 151° Southeast 327 376 11,000 -120 Descending Atlanta Center
02:52PM 35.5694 -81.5239 128° Southeast 300 345 11,000 -240 Level Atlanta Center
02:52PM 35.5650 -81.5114 114° Southeast 287 330 10,800 -1,740 Descending Atlanta Center
02:53PM 35.5508 -81.4275 102° East 284 327 9,300 -1,800 Descending Atlanta Center
02:53PM 35.5481 -81.4047 99° East 287 330 9,000 -1,620 Descending Atlanta Center
02:54PM 35.5422 -81.3308 96° East 279 321 7,700 -1,380 Descending Atlanta Center
02:54PM 35.5419 -81.3103 91° East 281 323 7,600 -420 Descending Atlanta Center
02:55PM 35.5361 -81.2442 96° East 273 314 7,300 -600 Descending Atlanta Center
02:55PM 35.5378 -81.2264 83° East 236 272 7,000 -1,080 Descending Atlanta Center
02:56PM 35.5342 -81.1500 93° East 219 252 6,000 -600 Descending Atlanta Center
02:57PM 35.5306 -81.0886 94° East 232 267 6,000  Level Atlanta Center
02:57PM 35.5303 -81.0733 91° East 226 260 6,000  Level Atlanta Center
02:58PM 35.5122 -81.0206 113° Southeast 221 254 6,000 -420 Level Atlanta Center
02:58PM 35.4953 -81.0108 155° Southeast 227 261 5,600 -1,380 Descending Atlanta Center
02:59PM 35.4364 -80.9903 164° South 221 254 4,300 -840 Descending Atlanta Center
03:00PM 35.3881 -80.9842 174° South 170 196 3,900 -660 Descending Atlanta Center
03:01PM 35.3400 -80.9783 174° South 165 190 3,000 -840 Descending Atlanta Center
03:02PM 35.2961 -80.9775 179° South 156 180 2,200 -840 Descending Atlanta Center
03:04PM 35.2564 -80.9739 176° South 137 158 1,400 -840 Descending Atlanta Center
03:05PM 35.2137 -80.9491 155° Southeast  Level Estimated
03:12PM 35.2137 -80.9491 39° Northeast  Level Estimated
03:13PM 35.2137 -80.9491 39° Northeast  Level Estimated